Time;durP1;ratioP1;P1;durP2;ratioP2;P2;SDS_P1;SDS_P2;PMS_P1;PMS_P2;Temp;Humidity;BMP_temperature;BMP_pressure;BME280_temperature;BME280_humidity;BME280_pressure;Samples;Min_cycle;Max_cycle;Signal;HPM_P1;HPM_P2
2022/04/05 00:00:32;;;;;;;9.85;4.50;;;;;;;;;;5092998;28;20028;-73
2022/04/05 00:02:58;;;;;;;9.23;5.05;;;;;;;;;;5092993;28;20032;-73
2022/04/05 00:05:23;;;;;;;7.60;4.43;;;;;;;;;;5092864;28;20043;-73
2022/04/05 00:07:49;;;;;;;8.10;4.28;;;;;;;;;;5092929;28;20031;-73
2022/04/05 00:10:14;;;;;;;8.98;4.90;;;;;;;;;;5092997;28;20028;-73
2022/04/05 00:12:40;;;;;;;8.65;5.05;;;;;;;;;;5092963;28;20034;-73
2022/04/05 00:15:10;;;;;;;11.60;4.90;;;;;;;;;;5092748;28;20103;-74
2022/04/05 00:17:37;;;;;;;8.38;4.50;;;;;;;;;;5092589;28;20028;-74
2022/04/05 00:20:03;;;;;;;7.65;4.43;;;;;;;;;;5092686;28;20107;-74
2022/04/05 00:22:28;;;;;;;7.43;4.63;;;;;;;;;;5091544;28;20502;-74
2022/04/05 00:24:54;;;;;;;8.30;4.57;;;;;;;;;;5092639;28;20030;-73
2022/04/05 00:27:19;;;;;;;9.63;4.88;;;;;;;;;;5092772;28;20020;-74
2022/04/05 00:29:45;;;;;;;8.18;4.80;;;;;;;;;;5092484;28;20051;-73
2022/04/05 00:32:12;;;;;;;9.43;5.07;;;;;;;;;;5092572;28;20039;-73
2022/04/05 00:34:37;;;;;;;8.18;4.55;;;;;;;;;;5092298;28;20019;-73
2022/04/05 00:37:03;;;;;;;8.38;4.88;;;;;;;;;;5092029;28;20039;-73
2022/04/05 00:39:29;;;;;;;9.05;4.60;;;;;;;;;;5092591;28;20676;-74
2022/04/05 00:41:54;;;;;;;9.27;4.60;;;;;;;;;;5092338;28;20032;-73
2022/04/05 00:44:20;;;;;;;8.45;4.93;;;;;;;;;;5092319;28;20507;-75
2022/04/05 00:46:47;;;;;;;9.98;4.90;;;;;;;;;;5092197;28;20376;-75
2022/04/05 00:49:19;;;;;;;8.68;4.50;;;;;;;;;;5092088;28;20514;-73
2022/04/05 00:51:45;;;;;;;9.43;4.60;;;;;;;;;;5092345;28;20526;-74
2022/04/05 00:54:12;;;;;;;9.40;4.22;;;;;;;;;;5091971;28;20016;-74
2022/04/05 00:56:40;;;;;;;8.77;4.75;;;;;;;;;;5091862;28;20024;-73
2022/04/05 00:59:09;;;;;;;8.05;4.63;;;;;;;;;;5092097;28;20407;-74
2022/04/05 01:01:36;;;;;;;9.68;4.53;;;;;;;;;;5092146;28;20043;-74
2022/04/05 01:04:02;;;;;;;7.72;4.18;;;;;;;;;;5091817;28;20094;-74
2022/04/05 01:06:44;;;;;;;6.68;4.10;;;;;;;;;;5091935;28;20025;-75
2022/04/05 01:09:10;;;;;;;8.98;4.40;;;;;;;;;;5091770;28;20184;-74
2022/04/05 01:11:36;;;;;;;7.70;3.92;;;;;;;;;;5091907;28;20507;-73
2022/04/05 01:14:02;;;;;;;7.00;4.13;;;;;;;;;;5091984;28;20172;-74
2022/04/05 01:16:27;;;;;;;7.15;4.00;;;;;;;;;;5095325;28;20060;-74
2022/04/05 01:18:53;;;;;;;9.52;3.85;;;;;;;;;;5095285;28;20085;-74
2022/04/05 01:21:19;;;;;;;9.25;3.88;;;;;;;;;;5091967;28;20067;-74
2022/04/05 01:24:04;;;;;;;5.40;3.42;;;;;;;;;;5091508;28;20079;-74
2022/04/05 01:26:36;;;;;;;7.07;3.45;;;;;;;;;;5091271;28;20439;-74
2022/04/05 01:29:01;;;;;;;7.72;3.25;;;;;;;;;;5091726;28;20032;-74
2022/04/05 01:31:27;;;;;;;7.07;3.40;;;;;;;;;;5091541;28;20032;-74
2022/04/05 01:33:52;;;;;;;5.03;3.15;;;;;;;;;;5091505;28;20028;-74
2022/04/05 01:36:22;;;;;;;7.68;3.25;;;;;;;;;;5091316;28;20414;-74
2022/04/05 01:38:48;;;;;;;6.80;3.80;;;;;;;;;;5091109;28;20032;-73
2022/04/05 01:41:13;;;;;;;8.45;3.35;;;;;;;;;;5091066;28;20028;-74
2022/04/05 01:43:40;;;;;;;5.60;3.10;;;;;;;;;;5090939;28;20077;-73
2022/04/05 01:46:06;;;;;;;6.45;3.30;;;;;;;;;;5091115;28;20051;-74
2022/04/05 01:48:31;;;;;;;6.10;3.47;;;;;;;;;;5089815;28;20028;-73
2022/04/05 01:50:57;;;;;;;5.55;3.20;;;;;;;;;;5091257;28;20063;-74
2022/04/05 01:53:22;;;;;;;5.57;3.40;;;;;;;;;;5090290;28;20051;-75
2022/04/05 01:55:48;;;;;;;6.35;3.40;;;;;;;;;;5090766;28;20024;-74
2022/04/05 01:58:13;;;;;;;5.80;3.17;;;;;;;;;;5090583;28;20030;-74
2022/04/05 02:00:39;;;;;;;5.50;2.95;;;;;;;;;;5090722;28;20055;-75
2022/04/05 02:03:04;;;;;;;6.95;3.30;;;;;;;;;;5090690;28;20063;-73
2022/04/05 02:05:30;;;;;;;5.68;3.15;;;;;;;;;;5090594;28;20027;-73
2022/04/05 02:07:55;;;;;;;6.82;3.67;;;;;;;;;;5090680;28;20444;-75
2022/04/05 02:10:21;;;;;;;5.03;3.20;;;;;;;;;;5090719;28;20107;-75
2022/04/05 02:12:46;;;;;;;4.78;2.92;;;;;;;;;;5090644;28;20024;-74
2022/04/05 02:15:12;;;;;;;7.22;3.58;;;;;;;;;;5090650;28;20024;-74
2022/04/05 02:17:37;;;;;;;6.03;3.05;;;;;;;;;;5090220;28;20137;-74
2022/04/05 02:20:04;;;;;;;5.85;3.00;;;;;;;;;;5090749;28;20051;-74
2022/04/05 02:22:29;;;;;;;6.28;3.50;;;;;;;;;;5090477;28;20036;-75
2022/04/05 02:24:55;;;;;;;7.63;3.33;;;;;;;;;;5090476;28;20051;-74
2022/04/05 02:27:20;;;;;;;10.57;3.50;;;;;;;;;;5090695;28;20032;-73
2022/04/05 02:29:46;;;;;;;3.95;2.88;;;;;;;;;;5090579;28;20388;-75
2022/04/05 02:32:11;;;;;;;5.32;2.92;;;;;;;;;;5090405;28;20063;-74
2022/04/05 02:34:37;;;;;;;7.15;3.03;;;;;;;;;;5090264;28;20083;-75
2022/04/05 02:37:02;;;;;;;5.75;3.38;;;;;;;;;;5089901;28;20281;-74
2022/04/05 02:39:28;;;;;;;7.35;2.75;;;;;;;;;;5090280;28;20036;-75
2022/04/05 02:41:54;;;;;;;5.97;2.83;;;;;;;;;;5089047;28;20032;-73
2022/04/05 02:44:19;;;;;;;6.05;3.30;;;;;;;;;;5090295;28;20039;-74
2022/04/05 02:46:44;;;;;;;5.00;2.85;;;;;;;;;;5089977;28;20085;-74
2022/04/05 02:49:13;;;;;;;5.38;2.78;;;;;;;;;;5090273;28;20034;-75
2022/04/05 02:51:38;;;;;;;5.20;2.90;;;;;;;;;;5089991;28;20028;-74
2022/04/05 02:54:04;;;;;;;4.80;2.58;;;;;;;;;;5089899;28;20490;-73
2022/04/05 02:56:29;;;;;;;5.07;2.80;;;;;;;;;;5089874;28;20035;-73
2022/04/05 02:58:55;;;;;;;5.80;3.28;;;;;;;;;;5090081;28;20027;-73
2022/04/05 03:01:21;;;;;;;4.03;2.58;;;;;;;;;;5090208;28;20104;-74
2022/04/05 03:03:47;;;;;;;4.45;2.67;;;;;;;;;;5089955;28;20146;-74
2022/04/05 03:06:14;;;;;;;5.95;2.80;;;;;;;;;;5093366;28;20099;-75
2022/04/05 03:08:40;;;;;;;5.68;3.08;;;;;;;;;;5094072;28;20032;-73
2022/04/05 03:11:06;;;;;;;6.60;2.67;;;;;;;;;;5094009;28;20021;-75
2022/04/05 03:13:32;;;;;;;4.97;2.45;;;;;;;;;;5094304;28;20118;-75
2022/04/05 03:15:58;;;;;;;6.45;2.50;;;;;;;;;;5093942;28;20020;-75
2022/04/05 03:18:24;;;;;;;7.57;2.83;;;;;;;;;;5093969;28;20390;-73
2022/04/05 03:20:50;;;;;;;6.57;3.00;;;;;;;;;;5094104;28;20024;-75
2022/04/05 03:23:16;;;;;;;5.00;2.75;;;;;;;;;;5093791;28;20082;-73
2022/04/05 03:25:41;;;;;;;4.95;2.63;;;;;;;;;;5093786;28;20185;-73
2022/04/05 03:28:07;;;;;;;5.53;2.72;;;;;;;;;;5093505;28;20054;-75
2022/04/05 03:30:34;;;;;;;6.88;2.58;;;;;;;;;;5093707;28;20099;-73
2022/04/05 03:32:59;;;;;;;8.30;2.88;;;;;;;;;;5093740;28;20060;-74
2022/04/05 03:35:25;;;;;;;5.03;2.75;;;;;;;;;;5092432;28;20067;-74
2022/04/05 03:37:50;;;;;;;4.20;2.40;;;;;;;;;;5093041;28;20028;-74
2022/04/05 03:40:16;;;;;;;6.00;2.90;;;;;;;;;;5093388;28;20020;-74
2022/04/05 03:42:41;;;;;;;5.18;2.88;;;;;;;;;;5093324;28;20047;-74
2022/04/05 03:45:08;;;;;;;5.10;2.75;;;;;;;;;;5093484;28;20063;-75
2022/04/05 03:47:33;;;;;;;7.47;2.90;;;;;;;;;;5093286;28;20020;-76
2022/04/05 03:50:00;;;;;;;4.70;2.53;;;;;;;;;;5094112;28;20107;-75
2022/04/05 03:52:25;;;;;;;7.53;2.75;;;;;;;;;;5093960;28;20024;-74
2022/04/05 03:54:51;;;;;;;5.10;2.70;;;;;;;;;;5093555;28;20020;-75
2022/04/05 03:57:16;;;;;;;4.78;2.72;;;;;;;;;;5093832;28;20032;-74
2022/04/05 03:59:42;;;;;;;7.38;3.15;;;;;;;;;;5091832;28;20024;-74
2022/04/05 04:02:08;;;;;;;5.00;2.50;;;;;;;;;;5093165;28;20491;-75
2022/04/05 04:04:33;;;;;;;5.55;2.78;;;;;;;;;;5093683;28;20066;-75
2022/04/05 04:06:59;;;;;;;7.13;2.63;;;;;;;;;;5094275;28;20031;-74
2022/04/05 04:09:24;;;;;;;3.85;2.55;;;;;;;;;;5093494;28;20150;-74
2022/04/05 04:11:50;;;;;;;4.72;2.60;;;;;;;;;;5092716;28;20032;-75
2022/04/05 04:14:16;;;;;;;6.80;2.90;;;;;;;;;;5092836;28;20028;-75
2022/04/05 04:16:42;;;;;;;6.82;2.55;;;;;;;;;;5092528;28;20020;-74
2022/04/05 04:19:07;;;;;;;5.32;2.42;;;;;;;;;;5093123;28;20028;-74
2022/04/05 04:21:33;;;;;;;4.82;2.50;;;;;;;;;;5092617;28;20055;-74
2022/04/05 04:23:59;;;;;;;7.15;3.00;;;;;;;;;;5092464;28;20054;-74
2022/04/05 04:26:24;;;;;;;5.80;2.50;;;;;;;;;;5092451;28;20107;-74
2022/04/05 04:28:52;;;;;;;6.28;3.00;;;;;;;;;;5092556;28;20024;-75
2022/04/05 04:31:18;;;;;;;7.03;3.00;;;;;;;;;;5092535;28;20035;-75
2022/04/05 04:33:44;;;;;;;6.22;2.80;;;;;;;;;;5090955;28;20028;-75
2022/04/05 04:36:10;;;;;;;4.97;2.83;;;;;;;;;;5092670;28;20119;-74
2022/04/05 04:38:35;;;;;;;5.35;2.75;;;;;;;;;;5091809;28;20387;-75
2022/04/05 04:41:00;;;;;;;4.78;2.80;;;;;;;;;;5092414;28;20028;-73
2022/04/05 04:43:27;;;;;;;5.80;3.00;;;;;;;;;;5092504;28;20024;-73
2022/04/05 04:45:53;;;;;;;7.45;3.15;;;;;;;;;;5092420;28;20028;-76
2022/04/05 04:48:20;;;;;;;4.22;2.60;;;;;;;;;;5090846;28;20035;-75
2022/04/05 04:50:46;;;;;;;6.15;2.83;;;;;;;;;;5092208;28;20028;-74
2022/04/05 04:53:12;;;;;;;5.60;2.83;;;;;;;;;;5091702;28;20024;-74
2022/04/05 04:55:37;;;;;;;5.05;2.72;;;;;;;;;;5092200;28;20024;-74
2022/04/05 04:58:03;;;;;;;8.75;3.47;;;;;;;;;;5091798;28;20054;-74
2022/04/05 05:00:28;;;;;;;6.72;2.95;;;;;;;;;;5092081;28;20024;-74
2022/04/05 05:02:54;;;;;;;5.70;3.13;;;;;;;;;;5091966;28;20028;-74
2022/04/05 05:05:22;;;;;;;6.50;3.33;;;;;;;;;;5092315;28;20043;-74
2022/04/05 05:07:49;;;;;;;5.38;3.42;;;;;;;;;;5090205;28;20374;-74
2022/04/05 05:10:16;;;;;;;6.90;3.90;;;;;;;;;;5091697;28;20043;-73
2022/04/05 05:12:42;;;;;;;10.85;3.60;;;;;;;;;;5091759;28;20031;-73
2022/04/05 05:15:10;;;;;;;6.63;3.40;;;;;;;;;;5091797;28;20053;-74
2022/04/05 05:17:38;;;;;;;9.70;3.60;;;;;;;;;;5091396;28;20058;-73
2022/04/05 05:20:04;;;;;;;6.00;3.40;;;;;;;;;;5091770;28;20031;-74
2022/04/05 05:22:29;;;;;;;6.45;3.03;;;;;;;;;;5091437;28;20196;-75
2022/04/05 05:24:55;;;;;;;8.25;3.20;;;;;;;;;;5091411;28;20035;-73
2022/04/05 05:27:20;;;;;;;5.43;2.80;;;;;;;;;;5090388;28;20038;-74
2022/04/05 05:29:46;;;;;;;5.40;2.80;;;;;;;;;;5091515;28;20479;-75
2022/04/05 05:32:11;;;;;;;4.72;3.10;;;;;;;;;;5090130;28;20028;-73
2022/04/05 05:34:37;;;;;;;7.13;3.53;;;;;;;;;;5091759;28;20483;-75
2022/04/05 05:37:03;;;;;;;7.38;3.58;;;;;;;;;;5091247;28;20024;-73
2022/04/05 05:39:28;;;;;;;5.80;3.33;;;;;;;;;;5091152;28;20032;-73
2022/04/05 05:41:54;;;;;;;7.55;3.05;;;;;;;;;;5089590;28;20074;-75
2022/04/05 05:44:20;;;;;;;5.45;3.22;;;;;;;;;;5091101;28;20060;-75
2022/04/05 05:46:46;;;;;;;5.75;3.00;;;;;;;;;;5090988;28;20082;-75
2022/04/05 05:49:11;;;;;;;7.45;3.33;;;;;;;;;;5090965;28;20028;-75
2022/04/05 05:51:36;;;;;;;5.88;3.58;;;;;;;;;;5091028;28;20032;-73
2022/04/05 05:54:02;;;;;;;10.35;3.90;;;;;;;;;;5091015;28;20395;-73
2022/04/05 05:56:27;;;;;;;7.85;3.42;;;;;;;;;;5090872;28;20414;-73
2022/04/05 05:58:53;;;;;;;9.98;3.45;;;;;;;;;;5090515;28;20020;-73
2022/04/05 06:01:18;;;;;;;6.68;3.65;;;;;;;;;;5090734;28;20365;-74
2022/04/05 06:03:44;;;;;;;6.22;3.20;;;;;;;;;;5090581;28;20308;-74
2022/04/05 06:06:09;;;;;;;7.03;3.10;;;;;;;;;;5090637;28;20093;-72
2022/04/05 06:08:34;;;;;;;7.40;3.42;;;;;;;;;;5090414;28;20024;-75
2022/04/05 06:11:01;;;;;;;6.80;3.10;;;;;;;;;;5090859;28;20035;-79
2022/04/05 06:13:27;;;;;;;7.80;2.90;;;;;;;;;;5090696;28;20028;-74
2022/04/05 06:15:52;;;;;;;5.53;2.97;;;;;;;;;;5090451;28;20031;-73
2022/04/05 06:18:18;;;;;;;8.05;3.05;;;;;;;;;;5090267;28;20080;-73
2022/04/05 06:20:43;;;;;;;6.55;2.70;;;;;;;;;;5090504;28;20034;-73
2022/04/05 06:23:09;;;;;;;6.32;2.80;;;;;;;;;;5090188;28;20028;-76
2022/04/05 06:25:37;;;;;;;8.20;3.00;;;;;;;;;;5094442;28;20035;-74
2022/04/05 06:28:06;;;;;;;9.95;3.35;;;;;;;;;;5115166;27;20460;-73
2022/04/05 06:30:33;;;;;;;6.25;2.88;;;;;;;;;;5115912;27;20100;-73
2022/04/05 06:33:11;;;;;;;8.52;2.85;;;;;;;;;;5120766;27;20073;-73
2022/04/05 06:35:38;;;;;;;6.07;2.53;;;;;;;;;;5097451;28;20321;-73
2022/04/05 06:38:04;;;;;;;6.75;2.80;;;;;;;;;;5123815;27;20390;-74
2022/04/05 06:40:30;;;;;;;6.25;2.83;;;;;;;;;;5129594;27;20102;-74
2022/04/05 06:42:55;;;;;;;4.97;2.90;;;;;;;;;;5118354;27;20034;-74
2022/04/05 06:45:22;;;;;;;8.23;3.50;;;;;;;;;;5117236;27;20394;-75
2022/04/05 06:47:48;;;;;;;5.75;3.05;;;;;;;;;;5129488;27;20031;-74
2022/04/05 06:50:16;;;;;;;7.15;2.90;;;;;;;;;;5129801;27;20106;-74
2022/04/05 06:52:42;;;;;;;6.95;3.05;;;;;;;;;;5129010;27;20076;-75
2022/04/05 06:55:09;;;;;;;6.47;2.85;;;;;;;;;;5129708;27;20038;-74
2022/04/05 06:57:36;;;;;;;7.22;2.80;;;;;;;;;;5129352;27;20513;-72
2022/04/05 07:00:03;;;;;;;6.47;3.13;;;;;;;;;;5117455;27;20471;-73
2022/04/05 07:02:28;;;;;;;8.18;3.20;;;;;;;;;;5106394;28;20073;-70
2022/04/05 07:04:53;;;;;;;5.85;2.70;;;;;;;;;;5110236;28;20290;-73
2022/04/05 07:07:19;;;;;;;4.93;2.85;;;;;;;;;;5108755;28;20028;-71
2022/04/05 07:09:45;;;;;;;6.13;2.55;;;;;;;;;;5108404;28;20111;-74
2022/04/05 07:12:10;;;;;;;4.85;2.88;;;;;;;;;;5108057;28;20047;-75
2022/04/05 07:14:36;;;;;;;7.45;2.97;;;;;;;;;;5105642;28;20302;-73
2022/04/05 07:17:02;;;;;;;7.40;2.97;;;;;;;;;;5115357;28;20843;-75
2022/04/05 07:19:27;;;;;;;5.53;2.80;;;;;;;;;;5117239;28;20038;-74
2022/04/05 07:21:53;;;;;;;8.55;3.03;;;;;;;;;;5137685;27;20024;-73
2022/04/05 07:24:19;;;;;;;8.57;3.17;;;;;;;;;;5131162;27;20031;-74
2022/04/05 07:26:45;;;;;;;6.05;2.40;;;;;;;;;;5129050;27;20076;-74
2022/04/05 07:29:12;;;;;;;4.28;2.35;;;;;;;;;;5116816;27;20030;-75
2022/04/05 07:31:38;;;;;;;4.72;2.60;;;;;;;;;;5105321;28;20024;-74
2022/04/05 07:34:04;;;;;;;8.40;2.92;;;;;;;;;;5115135;28;20447;-74
2022/04/05 07:36:33;;;;;;;6.35;2.90;;;;;;;;;;5118967;27;20035;-75
2022/04/05 07:38:58;;;;;;;5.97;2.72;;;;;;;;;;5104626;28;20036;-76
2022/04/05 07:41:24;;;;;;;5.30;2.95;;;;;;;;;;5103588;28;20030;-77
2022/04/05 07:43:49;;;;;;;5.63;2.97;;;;;;;;;;5109552;28;20028;-77
2022/04/05 07:46:15;;;;;;;5.53;2.40;;;;;;;;;;5109784;28;20057;-77
2022/04/05 07:48:41;;;;;;;5.03;2.40;;;;;;;;;;5109477;28;20509;-76
2022/04/05 07:51:07;;;;;;;5.22;2.40;;;;;;;;;;5111619;28;20024;-79
2022/04/05 07:53:33;;;;;;;4.97;2.70;;;;;;;;;;5113340;28;20042;-78
2022/04/05 07:55:59;;;;;;;6.38;2.90;;;;;;;;;;5113979;28;20115;-77
2022/04/05 07:58:25;;;;;;;5.55;2.58;;;;;;;;;;5113551;27;20040;-79
2022/04/05 08:00:51;;;;;;;6.80;2.85;;;;;;;;;;5113380;28;20540;-79
2022/04/05 08:03:17;;;;;;;7.32;3.15;;;;;;;;;;5113299;28;20059;-78
2022/04/05 08:05:43;;;;;;;6.25;2.88;;;;;;;;;;5110096;28;20464;-76
2022/04/05 08:08:09;;;;;;;5.15;2.60;;;;;;;;;;5107088;28;20059;-77
2022/04/05 08:10:35;;;;;;;7.55;3.08;;;;;;;;;;5111855;28;20031;-77
2022/04/05 08:13:00;;;;;;;5.13;2.90;;;;;;;;;;5113212;28;20055;-77
2022/04/05 08:15:26;;;;;;;4.95;2.80;;;;;;;;;;5113137;28;20032;-77
2022/04/05 08:17:52;;;;;;;4.50;2.67;;;;;;;;;;5112901;28;20028;-77
2022/04/05 08:20:19;;;;;;;5.80;2.75;;;;;;;;;;5112485;28;20034;-77
2022/04/05 08:22:45;;;;;;;5.47;2.70;;;;;;;;;;5112801;28;20032;-76
2022/04/05 08:25:15;;;;;;;5.10;2.70;;;;;;;;;;5112787;28;20051;-76
2022/04/05 08:27:42;;;;;;;5.13;3.13;;;;;;;;;;5112826;28;20015;-77
2022/04/05 08:30:10;;;;;;;4.88;2.70;;;;;;;;;;5112332;28;20424;-76
2022/04/05 08:32:38;;;;;;;5.75;2.30;;;;;;;;;;5105664;28;20028;-76
2022/04/05 08:35:04;;;;;;;3.40;2.38;;;;;;;;;;5111168;28;20107;-75
2022/04/05 08:37:30;;;;;;;5.38;2.47;;;;;;;;;;5112167;28;20092;-75
2022/04/05 08:39:56;;;;;;;6.05;2.35;;;;;;;;;;5112054;28;20436;-77
2022/04/05 08:42:21;;;;;;;4.78;2.50;;;;;;;;;;5112515;28;20030;-77
2022/04/05 08:44:49;;;;;;;6.25;2.47;;;;;;;;;;5112278;28;20388;-76
2022/04/05 08:47:21;;;;;;;5.25;2.45;;;;;;;;;;5112317;28;20510;-76
2022/04/05 08:49:48;;;;;;;8.40;2.85;;;;;;;;;;5112070;28;20543;-76
2022/04/05 08:52:13;;;;;;;5.00;2.50;;;;;;;;;;5112276;28;20024;-76
2022/04/05 08:54:39;;;;;;;5.65;2.58;;;;;;;;;;5111778;28;20024;-77
2022/04/05 08:57:04;;;;;;;5.10;2.40;;;;;;;;;;5112333;28;20085;-76
2022/04/05 08:59:31;;;;;;;3.88;2.33;;;;;;;;;;5111954;28;20016;-76
2022/04/05 09:01:57;;;;;;;4.13;2.20;;;;;;;;;;5112496;28;20107;-77
2022/04/05 09:04:22;;;;;;;6.03;2.40;;;;;;;;;;5112138;28;20119;-76
2022/04/05 09:06:48;;;;;;;4.80;2.20;;;;;;;;;;5112052;28;20028;-76
2022/04/05 09:09:18;;;;;;;5.05;2.20;;;;;;;;;;5111968;28;20035;-76
2022/04/05 09:11:49;;;;;;;4.13;2.50;;;;;;;;;;5112220;28;20055;-77
2022/04/05 09:14:21;;;;;;;4.50;2.65;;;;;;;;;;5111943;28;20020;-76
2022/04/05 09:16:47;;;;;;;5.00;2.15;;;;;;;;;;5112430;28;20062;-77
2022/04/05 09:19:14;;;;;;;4.68;2.05;;;;;;;;;;5112195;28;20476;-77
2022/04/05 09:21:51;;;;;;;4.20;2.22;;;;;;;;;;5112377;28;20027;-77
2022/04/05 09:24:17;;;;;;;7.15;2.25;;;;;;;;;;5111951;27;20069;-78
2022/04/05 09:26:43;;;;;;;4.68;2.00;;;;;;;;;;5111979;28;20023;-76
2022/04/05 09:29:09;;;;;;;3.83;2.17;;;;;;;;;;5111607;28;20553;-77
2022/04/05 09:31:44;;;;;;;5.53;2.10;;;;;;;;;;5110295;28;20031;-76
2022/04/05 09:34:12;;;;;;;5.95;2.47;;;;;;;;;;5111614;28;20065;-76
2022/04/05 09:36:43;;;;;;;4.78;2.08;;;;;;;;;;5109880;28;20108;-78
2022/04/05 09:39:29;;;;;;;5.78;2.08;;;;;;;;;;5090123;28;20036;-72
2022/04/05 09:42:01;;;;;;;2.97;1.90;;;;;;;;;;5090464;28;20036;-72
2022/04/05 09:44:37;;;;;;;6.10;2.10;;;;;;;;;;5091045;28;20043;-70
2022/04/05 09:47:10;;;;;;;3.50;1.90;;;;;;;;;;5091305;28;20036;-70
2022/04/05 09:49:41;;;;;;;3.72;1.90;;;;;;;;;;5091385;28;20353;-71
2022/04/05 09:52:27;;;;;;;3.67;1.70;;;;;;;;;;5091133;28;20032;-71
2022/04/05 09:54:53;;;;;;;4.05;2.00;;;;;;;;;;5091236;28;20032;-71
2022/04/05 09:57:30;;;;;;;5.05;1.90;;;;;;;;;;5090856;28;20070;-71
2022/04/05 10:00:09;;;;;;;4.78;2.00;;;;;;;;;;5090703;28;20028;-70
2022/04/05 10:02:35;;;;;;;4.05;2.00;;;;;;;;;;5090805;28;20255;-71
2022/04/05 10:05:10;;;;;;;4.10;2.20;;;;;;;;;;5090607;28;20568;-71
2022/04/05 10:07:36;;;;;;;4.53;2.20;;;;;;;;;;5090644;28;20035;-74
2022/04/05 10:10:07;;;;;;;3.63;2.05;;;;;;;;;;5090712;28;20415;-71
2022/04/05 10:12:34;;;;;;;3.53;1.90;;;;;;;;;;5090574;28;20179;-72
2022/04/05 10:15:00;;;;;;;3.53;2.05;;;;;;;;;;5090298;28;20059;-73
2022/04/05 10:17:27;;;;;;;5.57;2.03;;;;;;;;;;5090540;28;20383;-71
2022/04/05 10:19:54;;;;;;;6.90;2.30;;;;;;;;;;5090136;28;20031;-72
2022/04/05 10:22:20;;;;;;;3.55;2.17;;;;;;;;;;5090456;28;20402;-74
2022/04/05 10:24:49;;;;;;;5.00;2.33;;;;;;;;;;5090690;28;20032;-78
2022/04/05 10:27:16;;;;;;;4.70;1.90;;;;;;;;;;5090523;28;20271;-74
2022/04/05 10:29:43;;;;;;;3.95;2.10;;;;;;;;;;5090255;28;20107;-72
2022/04/05 10:32:27;;;;;;;4.28;2.00;;;;;;;;;;5089081;28;20066;-71
2022/04/05 10:35:03;;;;;;;3.83;1.90;;;;;;;;;;5090287;28;20153;-76
2022/04/05 10:37:34;;;;;;;3.85;2.10;;;;;;;;;;5090030;28;20024;-70
2022/04/05 10:39:59;;;;;;;4.65;2.17;;;;;;;;;;5090156;28;20048;-74
2022/04/05 10:42:33;;;;;;;5.43;2.05;;;;;;;;;;5090258;28;20459;-71
2022/04/05 10:45:26;;;;;;;4.43;2.13;;;;;;;;;;5090645;28;20480;-75
2022/04/05 10:48:16;;;;;;;5.00;2.15;;;;;;;;;;5090228;28;20028;-74
2022/04/05 10:51:00;;;;;;;3.70;1.75;;;;;;;;;;5090392;28;20367;-72
2022/04/05 10:53:41;;;;;;;3.80;2.08;;;;;;;;;;5089774;28;20452;-74
2022/04/05 10:56:07;;;;;;;3.90;1.90;;;;;;;;;;5090076;28;20108;-71
2022/04/05 10:59:07;;;;;;;3.80;2.13;;;;;;;;;;5089883;28;20111;-72
2022/04/05 11:01:43;;;;;;;4.50;2.30;;;;;;;;;;5089976;28;20034;-72
2022/04/05 11:04:21;;;;;;;4.57;2.33;;;;;;;;;;5089960;28;20538;-71
2022/04/05 11:06:59;;;;;;;3.67;2.30;;;;;;;;;;5090109;28;20044;-70
2022/04/05 11:09:28;;;;;;;4.40;2.35;;;;;;;;;;5089527;28;20061;-70
2022/04/05 11:11:55;;;;;;;6.85;2.50;;;;;;;;;;5089733;28;20024;-73
2022/04/05 11:14:39;;;;;;;5.18;2.25;;;;;;;;;;5089741;28;20496;-72
2022/04/05 11:17:07;;;;;;;6.13;2.28;;;;;;;;;;5089816;28;20133;-75
2022/04/05 11:19:38;;;;;;;4.68;2.45;;;;;;;;;;5089702;28;20465;-72
2022/04/05 11:22:30;;;;;;;5.00;2.38;;;;;;;;;;5090030;28;20103;-71
2022/04/05 11:25:28;;;;;;;6.07;2.65;;;;;;;;;;5089836;28;20020;-72
2022/04/05 11:27:55;;;;;;;6.30;2.67;;;;;;;;;;5093798;28;20057;-71
2022/04/05 11:30:37;;;;;;;5.18;2.70;;;;;;;;;;5093713;28;20035;-71
2022/04/05 11:33:21;;;;;;;5.28;2.45;;;;;;;;;;5093685;28;20028;-70
2022/04/05 11:35:47;;;;;;;4.60;2.47;;;;;;;;;;5093928;28;20032;-70
2022/04/05 11:38:43;;;;;;;4.68;2.65;;;;;;;;;;5093582;28;20448;-74
2022/04/05 11:41:22;;;;;;;4.30;2.40;;;;;;;;;;5093588;28;20030;-72
2022/04/05 11:43:53;;;;;;;4.50;2.47;;;;;;;;;;5093594;28;20031;-70
2022/04/05 11:46:21;;;;;;;7.15;2.47;;;;;;;;;;5093804;28;20047;-71
2022/04/05 11:48:52;;;;;;;5.00;2.10;;;;;;;;;;5093417;28;20414;-72
2022/04/05 11:51:20;;;;;;;4.68;2.22;;;;;;;;;;5093246;28;20016;-74
2022/04/05 11:53:46;;;;;;;5.47;2.30;;;;;;;;;;5093208;28;20394;-73
2022/04/05 11:56:18;;;;;;;3.30;2.10;;;;;;;;;;5093385;28;20031;-72
2022/04/05 11:58:49;;;;;;;4.28;2.25;;;;;;;;;;5093355;28;20093;-72
2022/04/05 12:01:19;;;;;;;4.82;2.20;;;;;;;;;;5093016;28;20045;-71
2022/04/05 12:03:45;;;;;;;6.95;2.30;;;;;;;;;;5092899;28;20067;-72
2022/04/05 12:06:12;;;;;;;6.35;2.17;;;;;;;;;;5092882;28;20473;-72
2022/04/05 12:08:37;;;;;;;3.20;2.13;;;;;;;;;;5092797;28;20048;-75
2022/04/05 12:11:04;;;;;;;6.53;2.35;;;;;;;;;;5092744;28;20058;-71
2022/04/05 12:13:31;;;;;;;5.03;2.17;;;;;;;;;;5093265;28;20027;-71
2022/04/05 12:15:59;;;;;;;5.70;2.45;;;;;;;;;;5093117;28;20012;-72
2022/04/05 12:18:28;;;;;;;4.97;2.50;;;;;;;;;;5092854;28;20165;-74
2022/04/05 12:20:57;;;;;;;7.35;2.42;;;;;;;;;;5092590;28;20024;-71
2022/04/05 12:23:28;;;;;;;5.32;2.35;;;;;;;;;;5092538;28;20028;-71
2022/04/05 12:26:14;;;;;;;6.88;2.55;;;;;;;;;;5092586;28;20035;-72
2022/04/05 12:28:45;;;;;;;4.15;2.42;;;;;;;;;;5092764;28;20036;-72
2022/04/05 12:31:16;;;;;;;4.43;2.17;;;;;;;;;;5092379;28;20023;-75
2022/04/05 12:33:53;;;;;;;3.72;2.28;;;;;;;;;;5092674;28;20056;-71
2022/04/05 12:36:20;;;;;;;3.28;2.20;;;;;;;;;;5092052;28;20027;-72
2022/04/05 12:38:47;;;;;;;3.53;2.15;;;;;;;;;;5092324;28;20058;-75
2022/04/05 12:41:14;;;;;;;6.63;2.55;;;;;;;;;;5092635;28;20081;-74
2022/04/05 12:43:40;;;;;;;4.43;2.40;;;;;;;;;;5092307;28;20028;-72
2022/04/05 12:46:13;;;;;;;6.18;2.50;;;;;;;;;;5092300;28;20099;-71
2022/04/05 12:48:41;;;;;;;6.80;2.72;;;;;;;;;;5092451;28;20020;-74
2022/04/05 12:51:07;;;;;;;5.22;2.58;;;;;;;;;;5092273;28;20028;-72
2022/04/05 12:53:37;;;;;;;6.65;2.80;;;;;;;;;;5092532;28;20036;-71
2022/04/05 12:56:08;;;;;;;7.13;2.65;;;;;;;;;;5092195;28;20380;-76
2022/04/05 12:58:40;;;;;;;6.45;2.63;;;;;;;;;;5092464;28;20044;-74
2022/04/05 13:01:34;;;;;;;6.60;2.50;;;;;;;;;;5091804;28;20369;-72
2022/04/05 13:04:03;;;;;;;6.30;2.67;;;;;;;;;;5086584;28;20050;-75
2022/04/05 13:06:30;;;;;;;4.38;2.33;;;;;;;;;;5091805;28;20438;-71
2022/04/05 13:09:04;;;;;;;6.55;2.70;;;;;;;;;;5091720;28;20085;-75
2022/04/05 13:11:30;;;;;;;5.28;2.40;;;;;;;;;;5091512;28;20027;-71
2022/04/05 13:14:04;;;;;;;6.57;2.55;;;;;;;;;;5091917;28;20020;-72
2022/04/05 13:16:30;;;;;;;4.90;2.58;;;;;;;;;;5091507;28;20024;-70
2022/04/05 13:19:09;;;;;;;5.32;2.50;;;;;;;;;;5091369;28;20070;-74
2022/04/05 13:22:01;;;;;;;5.20;2.72;;;;;;;;;;5091429;28;20039;-75
2022/04/05 13:24:47;;;;;;;4.78;2.45;;;;;;;;;;5090012;28;20036;-71
2022/04/05 13:27:14;;;;;;;4.43;2.50;;;;;;;;;;5091151;28;20089;-70
2022/04/05 13:29:42;;;;;;;4.07;2.47;;;;;;;;;;5091214;28;20026;-71
2022/04/05 13:32:14;;;;;;;4.45;2.40;;;;;;;;;;5091256;28;20024;-74
2022/04/05 13:34:44;;;;;;;5.28;2.60;;;;;;;;;;5091328;28;20059;-71
2022/04/05 13:37:13;;;;;;;9.90;2.63;;;;;;;;;;5091056;28;20024;-73
2022/04/05 13:39:39;;;;;;;4.55;2.40;;;;;;;;;;5090810;28;20027;-71
2022/04/05 13:42:08;;;;;;;5.72;2.25;;;;;;;;;;5090934;28;20107;-71
2022/04/05 13:44:35;;;;;;;4.68;2.40;;;;;;;;;;5091208;28;20475;-72
2022/04/05 13:47:03;;;;;;;3.40;2.13;;;;;;;;;;5091051;28;20430;-71
2022/04/05 13:49:29;;;;;;;5.82;2.15;;;;;;;;;;5090269;28;20024;-71
2022/04/05 13:51:56;;;;;;;5.45;2.33;;;;;;;;;;5090896;28;20480;-72
2022/04/05 13:54:23;;;;;;;6.13;2.10;;;;;;;;;;5090837;28;20020;-73
2022/04/05 13:56:49;;;;;;;6.47;2.05;;;;;;;;;;5091308;28;20044;-73
2022/04/05 13:59:14;;;;;;;3.95;2.10;;;;;;;;;;5090695;28;20060;-71
2022/04/05 14:01:40;;;;;;;3.33;2.00;;;;;;;;;;5090745;28;20020;-71
2022/04/05 14:04:06;;;;;;;5.60;2.47;;;;;;;;;;5090705;28;20040;-70
2022/04/05 14:06:32;;;;;;;5.43;2.25;;;;;;;;;;5090799;28;20027;-75
2022/04/05 14:08:57;;;;;;;4.88;2.30;;;;;;;;;;5090660;28;20269;-71
2022/04/05 14:11:24;;;;;;;3.47;1.90;;;;;;;;;;5090234;28;20179;-71
2022/04/05 14:13:49;;;;;;;4.15;2.10;;;;;;;;;;5090471;28;20032;-73
2022/04/05 14:16:15;;;;;;;6.68;2.17;;;;;;;;;;5090514;28;20035;-72
2022/04/05 14:18:42;;;;;;;4.30;2.28;;;;;;;;;;5090410;28;20164;-70
2022/04/05 14:21:08;;;;;;;6.85;2.08;;;;;;;;;;5090366;28;20438;-72
2022/04/05 14:23:35;;;;;;;3.53;1.77;;;;;;;;;;5090415;28;20069;-70
2022/04/05 14:26:02;;;;;;;4.03;1.65;;;;;;;;;;5089322;28;20462;-70
2022/04/05 14:28:27;;;;;;;4.60;1.70;;;;;;;;;;5090313;28;20270;-74
2022/04/05 14:30:53;;;;;;;3.35;1.90;;;;;;;;;;5090017;28;20251;-72
2022/04/05 14:33:18;;;;;;;2.75;1.55;;;;;;;;;;5090266;28;20403;-73
2022/04/05 14:35:44;;;;;;;3.63;1.60;;;;;;;;;;5090463;28;20024;-70
2022/04/05 14:38:10;;;;;;;4.00;1.85;;;;;;;;;;5090166;28;20121;-70
2022/04/05 14:40:36;;;;;;;2.53;1.58;;;;;;;;;;5090515;28;20039;-71
2022/04/05 14:43:03;;;;;;;3.15;1.48;;;;;;;;;;5090528;28;20028;-70
2022/04/05 14:45:30;;;;;;;3.60;1.55;;;;;;;;;;5090190;28;20024;-72
2022/04/05 14:47:56;;;;;;;4.32;1.90;;;;;;;;;;5090102;28;20579;-73